Traffic Girl — FAE4288 — position and weather

sailwx.info

Track history (hours):
 
Tides and Currents Weather Stations Pressure Air Temp Water Temp Dewpoint Dewpoint Depression Visibility Wind Speed Wind Dir Waves Ship Positions

Traffic Girl

Last reported at 2018-May-19 15:31 UTC. Time now 2018-Jun-21 10:12 UTC.
Position N 49°27' W 002°32'.
Warning: this ship's position is 32 days out of date.

Length 10 m.

Type: Sailing vessel. MMSI: 227474980.

Date/timePositionNaut miles runAvg speedWind from/ knotsBaromVisibWave heightAir tempDewpointWater temp
2018-May-19 15:31N 49°27' W 002°32'0 0.1
2018-May-19 15:25N 49°27' W 002°32'1 1.8
2018-May-19 14:52N 49°27' W 002°31'1 4.0
2018-May-19 14:30N 49°26' W 002°29'3 5.4
2018-May-19 13:57N 49°25' W 002°25'4 6.7
2018-May-19 13:25N 49°24' W 002°20'3 5.6
2018-May-19 12:56N 49°25' W 002°15'3 6.1
2018-May-19 12:30N 49°25' W 002°11'3 5.8
2018-May-19 11:58N 49°25' W 002°07'  
Track history (hours):
 
Tides and Currents Weather Stations Pressure Air Temp Water Temp Dewpoint Dewpoint Depression Visibility Wind Speed Wind Dir Waves Ship Positions

Traffic Girl

Last reported at 2018-May-19 15:31 UTC. Time now 2018-Jun-21 10:12 UTC.
Position N 49°27' W 002°32'.
Warning: this ship's position is 32 days out of date.

Length 10 m.

Type: Sailing vessel. MMSI: 227474980.

Date/timePositionNaut miles runAvg speedWind from/ knotsBaromVisibWave heightAir tempDewpointWater temp
2018-May-19 15:31N 49°27' W 002°32'0 0.1
2018-May-19 15:25N 49°27' W 002°32'1 1.8
2018-May-19 14:52N 49°27' W 002°31'1 4.0
2018-May-19 14:30N 49°26' W 002°29'3 5.4
2018-May-19 13:57N 49°25' W 002°25'4 6.7
2018-May-19 13:25N 49°24' W 002°20'3 5.6
2018-May-19 12:56N 49°25' W 002°15'3 6.1
2018-May-19 12:30N 49°25' W 002°11'3 5.8
2018-May-19 11:58N 49°25' W 002°07'  

Dump ship's entire track history